| time (UTC) | temp C | wind direction | speed KPH | gust KPH | rain 1hr cm | rain 24hr cm | rain mn cm | humidity % | barometer mb |
| 20260503220316 | 18 | 0 | 6.4 | 17.7 | 0.00 | 0.00 | 0.00 | 50 | 999.8 |
| 20260503215816 | 18 | 0 | 6.4 | 16.1 | 0.00 | 0.00 | 0.00 | 50 | 999.9 |
| 20260503215316 | 18 | 0 | 8.0 | 16.1 | 0.00 | 0.00 | 0.00 | 50 | 999.9 |
| 20260503214816 | 18 | 0 | 6.4 | 14.5 | 0.00 | 0.00 | 0.00 | 50 | 999.9 |
| 20260503214316 | 18 | 0 | 8.0 | 22.5 | 0.00 | 0.00 | 0.00 | 50 | 999.9 |
| 20260503214039 | 18 | 0 | 8.0 | 22.5 | 0.00 | 0.00 | 0.00 | 50 | 1000.0 |
| 20260503213314 | 18 | 0 | 6.4 | 16.1 | 0.00 | 0.00 | 0.00 | 51 | 1000.1 |
| 20260503212817 | 17 | 0 | 6.4 | 17.7 | 0.00 | 0.00 | 0.00 | 51 | 1000.1 |
| 20260503212536 | 17 | 0 | 8.0 | 20.9 | 0.00 | 0.00 | 0.00 | 50 | 1000.2 |
| 20260503211816 | 18 | 0 | 9.7 | 20.9 | 0.00 | 0.00 | 0.00 | 49 | 1000.2 |
| 20260503211314 | 18 | 0 | 9.7 | 30.6 | 0.00 | 0.00 | 0.00 | 50 | 1000.2 |
| 20260503210808 | 18 | 0 | 9.7 | 30.6 | 0.00 | 0.00 | 0.00 | 48 | 1000.2 |
| 20260503210304 | 18 | 0 | 8.0 | 16.1 | 0.00 | 0.00 | 0.00 | 49 | 1000.3 |
| 20260503205757 | 18 | 0 | 8.0 | 20.9 | 0.00 | 0.00 | 0.00 | 49 | 1000.4 |
| 20260503205251 | 18 | 0 | 8.0 | 20.9 | 0.00 | 0.00 | 0.00 | 49 | 1000.4 |
| 20260503204745 | 18 | 0 | 8.0 | 17.7 | 0.00 | 0.00 | 0.00 | 48 | 1000.6 |
| 20260503204239 | 18 | 0 | 6.4 | 17.7 | 0.00 | 0.00 | 0.00 | 52 | 1000.6 |
| 20260503203733 | 17 | 0 | 6.4 | 14.5 | 0.00 | 0.00 | 0.00 | 56 | 1000.7 |
| 20260503203500 | 17 | 0 | 8.0 | 14.5 | 0.00 | 0.00 | 0.00 | 53 | 1000.8 |
| 20260503202732 | 17 | 0 | 8.0 | 22.5 | 0.00 | 0.00 | 0.00 | 53 | 1000.9 |
| 20260503202232 | 17 | 0 | 8.0 | 22.5 | 0.00 | 0.00 | 0.00 | 53 | 1000.9 |
| 20260503201730 | 17 | 0 | 8.0 | 17.7 | 0.00 | 0.00 | 0.00 | 56 | 1001.0 |
| 20260503201230 | 17 | 0 | 8.0 | 17.7 | 0.00 | 0.00 | 0.00 | 53 | 1001.3 |
| 20260503200729 | 17 | 0 | 8.0 | 17.7 | 0.00 | 0.00 | 0.00 | 54 | 1001.4 |
| 20260503200233 | 17 | 0 | 8.0 | 20.9 | 0.00 | 0.00 | 0.00 | 52 | 1001.4 |
| 20260503195729 | 17 | 0 | 9.7 | 25.7 | 0.00 | 0.00 | 0.00 | 52 | 1001.7 |
| 20260503195230 | 17 | 0 | 11.3 | 25.7 | 0.00 | 0.00 | 0.00 | 52 | 1001.7 |
| 20260503194730 | 17 | 0 | 9.7 | 25.7 | 0.00 | 0.00 | 0.00 | 51 | 1001.7 |
| 20260503194230 | 17 | 0 | 9.7 | 20.9 | 0.00 | 0.00 | 0.00 | 53 | 1001.7 |
| 20260503193731 | 17 | 0 | 9.7 | 20.9 | 0.00 | 0.00 | 0.00 | 49 | 1001.6 |
| 20260503193231 | 17 | 0 | 11.3 | 20.9 | 0.00 | 0.00 | 0.00 | 51 | 1001.8 |
| 20260503192729 | 17 | 0 | 11.3 | 29.0 | 0.00 | 0.00 | 0.00 | 49 | 1001.8 |
| 20260503192230 | 17 | 0 | 9.7 | 29.0 | 0.00 | 0.00 | 0.00 | 47 | 1001.8 |
| 20260503191730 | 17 | 0 | 9.7 | 20.9 | 0.00 | 0.00 | 0.00 | 49 | 1001.8 |
| 20260503191455 | 17 | 0 | 9.7 | 25.7 | 0.00 | 0.00 | 0.00 | 47 | 1001.7 |
| 20260503190724 | 17 | 0 | 8.0 | 25.7 | 0.00 | 0.00 | 0.00 | 50 | 1001.5 |
| 20260503190220 | 17 | 0 | 9.7 | 24.1 | 0.00 | 0.00 | 0.00 | 49 | 1001.7 |
| 20260503185721 | 17 | 0 | 12.9 | 29.0 | 0.00 | 0.00 | 0.00 | 50 | 1001.9 |
| 20260503185220 | 17 | 0 | 12.9 | 29.0 | 0.00 | 0.00 | 0.00 | 49 | 1001.8 |
| 20260503184721 | 17 | 0 | 9.7 | 22.5 | 0.00 | 0.00 | 0.00 | 52 | 1001.9 |
| 20260503184220 | 17 | 0 | 8.0 | 19.3 | 0.00 | 0.00 | 0.00 | 52 | 1002.1 |
| 20260503183719 | 17 | 0 | 9.7 | 19.3 | 0.00 | 0.00 | 0.00 | 54 | 1002.0 |
| 20260503183658 | 17 | 0 | 8.0 | 29.0 | 0.00 | 0.00 | 0.00 | 53 | 1002.3 |
| 20260503182722 | 16 | 0 | 9.7 | 29.0 | 0.00 | 0.00 | 0.00 | 53 | 1002.3 |
| 20260503182219 | 16 | 0 | 11.3 | 19.3 | 0.00 | 0.00 | 0.00 | 51 | 1002.3 |
| 20260503181721 | 16 | 0 | 11.3 | 19.3 | 0.00 | 0.00 | 0.00 | 56 | 1002.4 |
| 20260503181443 | 16 | 0 | 11.3 | 32.2 | 0.00 | 0.00 | 0.00 | 54 | 1002.6 |
| 20260503181316 | 16 | 0 | 11.3 | 32.2 | 0.00 | 0.00 | 0.00 | 55 | 1002.6 |
| 20260503180220 | 16 | 0 | 9.7 | 20.9 | 0.00 | 0.00 | 0.00 | 55 | 1002.8 |
| 20260503175719 | 16 | 0 | 9.7 | 24.1 | 0.00 | 0.00 | 0.00 | 56 | 1002.7 |
| 20260503175217 | 16 | 0 | 11.3 | 35.4 | 0.00 | 0.00 | 0.00 | 56 | 1002.8 |
| 20260503174717 | 16 | 0 | 11.3 | 35.4 | 0.00 | 0.00 | 0.00 | 56 | 1003.1 |
| 20260503174211 | 15 | 0 | 9.7 | 24.1 | 0.00 | 0.00 | 0.00 | 58 | 1003.1 |
| 20260503173705 | 15 | 0 | 11.3 | 29.0 | 0.00 | 0.00 | 0.00 | 58 | 1003.2 |
| 20260503173203 | 15 | 0 | 11.3 | 29.0 | 0.00 | 0.00 | 0.00 | 58 | 1003.4 |
| 20260503172656 | 15 | 0 | 11.3 | 25.7 | 0.00 | 0.00 | 0.00 | 58 | 1003.4 |
| 20260503172150 | 15 | 0 | 11.3 | 22.5 | 0.00 | 0.00 | 0.00 | 60 | 1003.5 |
| 20260503172138 | 15 | 0 | 9.7 | 22.5 | 0.00 | 0.00 | 0.00 | 59 | 1003.6 |
| 20260503171143 | 15 | 0 | 9.7 | 17.7 | 0.00 | 0.00 | 0.00 | 58 | 1003.6 |
| 20260503170643 | 15 | 0 | 8.0 | 17.7 | 0.00 | 0.00 | 0.00 | 58 | 1004.1 |
| 20260503170146 | 15 | 0 | 8.0 | 20.9 | 0.00 | 0.00 | 0.00 | 64 | 1004.1 |
| 20260503160143 | 11 | 0 | 6.4 | 14.5 | 0.00 | 0.00 | 0.00 | 74 | 1005.1 |
| 20260503150637 | 13 | 0 | 8.0 | 24.1 | 0.00 | 0.00 | 0.00 | 61 | 1005.3 |
| 20260503150135 | 13 | 0 | 8.0 | 17.7 | 0.00 | 0.00 | 0.00 | 59 | 1005.2 |
| 20260503140126 | 13 | 0 | 8.0 | 14.5 | 0.00 | 0.00 | 0.00 | 59 | 1005.8 |
| 20260503131335 | 11 | 0 | 8.0 | 20.9 | 0.00 | 0.00 | 0.00 | 61 | 1006.2 |
| 20260503130831 | 10 | 0 | 6.4 | 20.9 | 0.00 | 0.00 | 0.00 | 62 | 1006.2 |
| 20260503130108 | 10 | 0 | 6.4 | 16.1 | 0.00 | 0.00 | 0.00 | 62 | 1006.2 |
| 20260503110455 | 8 | 0 | 3.2 | 11.3 | 0.00 | 0.00 | 0.00 | 59 | 1006.2 |
| 20260503090435 | 8 | 0 | 3.2 | 9.7 | 0.00 | 0.00 | 0.00 | 59 | 1006.9 |
| 20260503081420 | 8 | 0 | 1.6 | 8.0 | 0.00 | 0.00 | 0.00 | 59 | 1007.2 |
| 20260503081408 | 8 | 0 | 3.2 | 9.7 | 0.00 | 0.00 | 0.00 | 57 | 1007.3 |
| 20260503080421 | 8 | 0 | 3.2 | 11.3 | 0.00 | 0.00 | 0.00 | 57 | 1007.3 |
| 20260503072421 | 8 | 0 | 1.6 | 8.0 | 0.00 | 0.00 | 0.00 | 59 | 1007.5 |
| 20260503071930 | 8 | 0 | 3.2 | 8.0 | 0.00 | 0.00 | 0.00 | 59 | 1007.6 |
| 20260503071420 | 8 | 0 | 3.2 | 11.3 | 0.00 | 0.00 | 0.00 | 58 | 1007.6 |
| 20260503071142 | 8 | 0 | 3.2 | 11.3 | 0.00 | 0.00 | 0.00 | 59 | 1007.7 |
| 20260503070435 | 8 | 0 | 3.2 | 8.0 | 0.00 | 0.00 | 0.00 | 59 | 1007.7 |
| 20260503054409 | 8 | 0 | 1.6 | 9.7 | 0.00 | 0.00 | 0.00 | 58 | 1008.2 |
| 20260503054131 | 8 | 0 | 1.6 | 9.7 | 0.00 | 0.00 | 0.00 | 58 | 1008.4 |
| 20260503053412 | 8 | 0 | 1.6 | 8.0 | 0.00 | 0.00 | 0.00 | 58 | 1008.5 |
| 20260503052909 | 8 | 0 | 1.6 | 8.0 | 0.00 | 0.00 | 0.00 | 59 | 1008.5 |
| 20260503052408 | 8 | 0 | 1.6 | 8.0 | 0.00 | 0.00 | 0.00 | 59 | 1008.5 |
| 20260503051905 | 8 | 0 | 3.2 | 8.0 | 0.00 | 0.00 | 0.00 | 59 | 1008.6 |
| 20260503051632 | 8 | 0 | 1.6 | 8.0 | 0.00 | 0.00 | 0.00 | 59 | 1008.6 |
| 20260503050904 | 8 | 0 | 1.6 | 8.0 | 0.00 | 0.00 | 0.00 | 60 | 1008.6 |
| 20260503050404 | 8 | 0 | 1.6 | 8.0 | 0.00 | 0.00 | 0.00 | 60 | 1008.6 |
| 20260503045904 | 8 | 0 | 1.6 | 8.0 | 0.00 | 0.00 | 0.00 | 60 | 1008.7 |
| 20260503045406 | 8 | 0 | 1.6 | 6.4 | 0.00 | 0.00 | 0.00 | 60 | 1008.7 |
| 20260503045123 | 8 | 0 | 1.6 | 6.4 | 0.00 | 0.00 | 0.00 | 60 | 1008.7 |
| 20260503044404 | 8 | 0 | 1.6 | 3.2 | 0.00 | 0.00 | 0.00 | 60 | 1008.7 |
| 20260503044121 | 8 | 0 | 1.6 | 8.0 | 0.00 | 0.00 | 0.00 | 59 | 1008.7 |
| 20260503043406 | 7 | 0 | 1.6 | 8.0 | 0.00 | 0.00 | 0.00 | 59 | 1008.7 |
| 20260503042903 | 7 | 0 | 1.6 | 8.0 | 0.00 | 0.00 | 0.00 | 60 | 1008.7 |
| 20260503042403 | 7 | 0 | 1.6 | 8.0 | 0.00 | 0.00 | 0.00 | 60 | 1008.7 |
| 20260503041906 | 7 | 0 | 1.6 | 8.0 | 0.00 | 0.00 | 0.00 | 60 | 1008.8 |
| 20260503041415 | 7 | 0 | 1.6 | 6.4 | 0.00 | 0.00 | 0.00 | 60 | 1008.9 |
| 20260503040903 | 7 | 0 | 1.6 | 6.4 | 0.00 | 0.00 | 0.00 | 61 | 1008.9 |
| 20260503040359 | 7 | 0 | 1.6 | 6.4 | 0.00 | 0.00 | 0.00 | 62 | 1008.9 |
| 20260503040122 | 6 | 0 | 1.6 | 6.4 | 0.00 | 0.00 | 0.00 | 62 | 1009.0 |
| 20260503035359 | 6 | 0 | 1.6 | 3.2 | 0.00 | 0.00 | 0.00 | 63 | 1009.1 |
| 20260503034859 | 6 | 0 | 0.0 | 3.2 | 0.00 | 0.00 | 0.00 | 64 | 1009.1 |
| 20260503034402 | 6 | 0 | 0.0 | 3.2 | 0.00 | 0.00 | 0.00 | 64 | 1009.1 |
| 20260503033901 | 6 | 0 | 0.0 | 3.2 | 0.00 | 0.00 | 0.00 | 63 | 1009.2 |
| 20260503033401 | 6 | 0 | 0.0 | 3.2 | 0.00 | 0.00 | 0.00 | 63 | 1009.2 |
| 20260503032900 | 6 | 0 | 0.0 | 3.2 | 0.00 | 0.00 | 0.00 | 64 | 1009.2 |
| 20260503032403 | 6 | 0 | 0.0 | 3.2 | 0.00 | 0.00 | 0.00 | 65 | 1009.2 |
| 20260503032121 | 6 | 0 | 1.6 | 3.2 | 0.00 | 0.00 | 0.00 | 66 | 1009.3 |
| 20260503031359 | 6 | 0 | 1.6 | 3.2 | 0.00 | 0.00 | 0.00 | 67 | 1009.3 |
| 20260503030859 | 6 | 0 | 0.0 | 3.2 | 0.00 | 0.00 | 0.00 | 69 | 1009.3 |
| 20260503030357 | 6 | 0 | 0.0 | 3.2 | 0.00 | 0.00 | 0.00 | 70 | 1009.4 |
| 20260503025857 | 6 | 0 | 0.0 | 0.0 | 0.00 | 0.00 | 0.00 | 71 | 1009.5 |
| 20260503025616 | 6 | 0 | 0.0 | 1.6 | 0.00 | 0.00 | 0.00 | 70 | 1009.6 |
| 20260503024855 | 6 | 0 | 0.0 | 1.6 | 0.00 | 0.00 | 0.00 | 70 | 1009.5 |
| 20260503024355 | 6 | 0 | 0.0 | 3.2 | 0.00 | 0.00 | 0.00 | 69 | 1009.5 |
| 20260503024121 | 6 | 0 | 0.0 | 3.2 | 0.00 | 0.00 | 0.00 | 69 | 1009.6 |
| 20260503023353 | 7 | 0 | 0.0 | 1.6 | 0.00 | 0.00 | 0.00 | 68 | 1009.6 |
| 20260503022852 | 7 | 0 | 1.6 | 6.4 | 0.00 | 0.00 | 0.00 | 68 | 1009.5 |
| 20260503022351 | 7 | 0 | 1.6 | 6.4 | 0.00 | 0.00 | 0.00 | 68 | 1009.6 |
| 20260503021850 | 7 | 0 | 0.0 | 3.2 | 0.00 | 0.00 | 0.00 | 68 | 1009.5 |
| 20260503021353 | 7 | 0 | 0.0 | 3.2 | 0.00 | 0.00 | 0.00 | 66 | 1009.5 |
| 20260503021329 | 7 | 0 | 0.0 | 3.2 | 0.00 | 0.00 | 0.00 | 65 | 1009.5 |
| 20260503020338 | 7 | 0 | 0.0 | 1.6 | 0.00 | 0.00 | 0.00 | 63 | 1009.5 |
| 20260503015832 | 7 | 0 | 0.0 | 1.6 | 0.00 | 0.00 | 0.00 | 59 | 1009.5 |
| 20260503015326 | 8 | 0 | 0.0 | 1.6 | 0.00 | 0.00 | 0.00 | 58 | 1009.4 |
| 20260503015043 | 8 | 0 | 0.0 | 0.0 | 0.00 | 0.00 | 0.00 | 57 | 1009.3 |
| 20260503014320 | 8 | 0 | 0.0 | 1.6 | 0.00 | 0.00 | 0.00 | 57 | 1009.3 |
| 20260503013816 | 8 | 0 | 0.0 | 1.6 | 0.00 | 0.00 | 0.00 | 56 | 1009.2 |
| 20260503013536 | 9 | 0 | 0.0 | 0.0 | 0.00 | 0.00 | 0.00 | 55 | 1009.2 |
| 20260503012818 | 9 | 0 | 0.0 | 1.6 | 0.00 | 0.00 | 0.00 | 54 | 1009.2 |
| 20260503012316 | 10 | 0 | 0.0 | 1.6 | 0.00 | 0.00 | 0.00 | 53 | 1009.2 |
| 20260503011814 | 10 | 0 | 0.0 | 1.6 | 0.00 | 0.00 | 0.00 | 53 | 1009.2 |
| 20260503011314 | 10 | 0 | 0.0 | 1.6 | 0.00 | 0.00 | 0.00 | 52 | 1009.2 |
| 20260503011037 | 10 | 0 | 0.0 | 1.6 | 0.00 | 0.00 | 0.00 | 49 | 1009.2 |
| 20260503010533 | 10 | 0 | 0.0 | 1.6 | 0.00 | 0.00 | 0.00 | 48 | 1009.2 |
| 20260503005811 | 10 | 0 | 0.0 | 1.6 | 0.00 | 0.00 | 0.00 | 48 | 1009.2 |
| 20260503005309 | 11 | 0 | 0.0 | 1.6 | 0.00 | 0.00 | 0.00 | 47 | 1009.3 |
| 20260503005031 | 11 | 0 | 0.0 | 1.6 | 0.00 | 0.00 | 0.00 | 47 | 1009.3 |
| 20260503004306 | 11 | 0 | 0.0 | 3.2 | 0.00 | 0.00 | 0.00 | 47 | 1009.2 |
| 20260503003807 | 11 | 0 | 0.0 | 3.2 | 0.00 | 0.00 | 0.00 | 45 | 1009.2 |
| 20260503003305 | 11 | 0 | 1.6 | 3.2 | 0.00 | 0.00 | 0.00 | 46 | 1009.2 |
| 20260503003022 | 11 | 0 | 0.0 | 3.2 | 0.00 | 0.00 | 0.00 | 45 | 1009.3 |
| 20260503002522 | 11 | 0 | 1.6 | 4.8 | 0.00 | 0.00 | 0.00 | 45 | 1009.3 |
| 20260503001818 | 12 | 0 | 1.6 | 6.4 | 0.00 | 0.00 | 0.00 | 44 | 1009.3 |
| 20260503001303 | 12 | 0 | 1.6 | 6.4 | 0.00 | 0.00 | 0.00 | 43 | 1009.3 |
| 20260503000801 | 12 | 0 | 1.6 | 8.0 | 0.00 | 0.00 | 0.00 | 43 | 1009.3 |
| 20260503000301 | 12 | 0 | 1.6 | 8.0 | 0.00 | 0.00 | 0.00 | 44 | 1009.3 |
| 20260502235800 | 12 | 0 | 1.6 | 8.0 | 0.00 | 0.00 | 0.00 | 44 | 1009.4 |
| 20260502235300 | 12 | 0 | 1.6 | 6.4 | 0.00 | 0.00 | 0.00 | 43 | 1009.4 |
| 20260502234801 | 12 | 0 | 3.2 | 8.0 | 0.00 | 0.00 | 0.00 | 43 | 1009.4 |
| 20260502234259 | 12 | 0 | 3.2 | 8.0 | 0.00 | 0.00 | 0.00 | 43 | 1009.5 |
| 20260502233758 | 12 | 0 | 3.2 | 12.9 | 0.00 | 0.00 | 0.00 | 42 | 1009.5 |
| 20260502233258 | 12 | 0 | 4.8 | 17.7 | 0.00 | 0.00 | 0.00 | 42 | 1009.6 |
| 20260502233023 | 12 | 0 | 3.2 | 17.7 | 0.00 | 0.00 | 0.00 | 41 | 1009.7 |
| 20260502232301 | 12 | 0 | 1.6 | 12.9 | 0.00 | 0.00 | 0.00 | 44 | 1009.7 |
| 20260502231759 | 12 | 0 | 3.2 | 11.3 | 0.00 | 0.00 | 0.00 | 43 | 1009.7 |
| 20260502231300 | 12 | 0 | 4.8 | 11.3 | 0.00 | 0.00 | 0.00 | 41 | 1009.8 |
| 20260502231025 | 12 | 0 | 4.8 | 11.3 | 0.00 | 0.00 | 0.00 | 42 | 1009.8 |
| 20260502230523 | 12 | 0 | 3.2 | 11.3 | 0.00 | 0.00 | 0.00 | 44 | 1009.8 |
| 20260502225756 | 12 | 0 | 3.2 | 9.7 | 0.00 | 0.00 | 0.00 | 45 | 1009.8 |
| 20260502225532 | 12 | 0 | 3.2 | 9.7 | 0.00 | 0.00 | 0.00 | 45 | 1009.9 |
| 20260502224753 | 12 | 0 | 3.2 | 11.3 | 0.00 | 0.00 | 0.00 | 43 | 1009.9 |
| 20260502224247 | 12 | 0 | 1.6 | 11.3 | 0.00 | 0.00 | 0.00 | 45 | 1010.1 |
| 20260502223739 | 12 | 0 | 3.2 | 12.9 | 0.00 | 0.00 | 0.00 | 43 | 1010.1 |
| 20260502223233 | 12 | 0 | 3.2 | 12.9 | 0.00 | 0.00 | 0.00 | 43 | 1010.2 |
| 20260502222938 | 12 | 0 | 6.4 | 12.9 | 0.00 | 0.00 | 0.00 | 42 | 1010.1 |
| 20260502222824 | 12 | 0 | 4.8 | 11.3 | 0.00 | 0.00 | 0.00 | 43 | 1010.1 |
| 20260502221728 | 12 | 0 | 4.8 | 12.9 | 0.00 | 0.00 | 0.00 | 40 | 1010.2 |
| 20260502221228 | 12 | 0 | 3.2 | 9.7 | 0.00 | 0.00 | 0.00 | 44 | 1010.3 |
| 20260502220731 | 12 | 0 | 3.2 | 9.7 | 0.00 | 0.00 | 0.00 | 44 | 1010.3 |